createdAt,value
2018-04-11T00:00:00.923Z,9.07
2018-04-11T00:02:29.455Z,9.32
2018-04-11T00:04:57.117Z,8.52
2018-04-11T00:07:24.760Z,8.57
2018-04-11T00:09:53.247Z,8.63
2018-04-11T00:12:22.366Z,9.37
2018-04-11T00:14:50.060Z,9.48
2018-04-11T00:17:17.678Z,9.18
2018-04-11T00:19:46.128Z,11.07
2018-04-11T00:22:13.793Z,8.20
2018-04-11T00:24:41.476Z,9.07
2018-04-11T00:27:09.121Z,9.13
2018-04-11T00:29:36.800Z,9.15
2018-04-11T00:32:04.531Z,8.73
2018-04-11T00:34:32.209Z,10.07
2018-04-11T00:36:59.845Z,9.70
2018-04-11T00:39:28.275Z,9.73
2018-04-11T00:41:55.939Z,8.60
2018-04-11T00:44:23.917Z,9.32
2018-04-11T00:46:51.572Z,9.30
2018-04-11T00:49:19.226Z,9.10
2018-04-11T00:51:46.925Z,9.55
2018-04-11T00:54:14.627Z,10.68
2018-04-11T00:56:43.030Z,8.75
2018-04-11T00:59:10.750Z,8.43
2018-04-11T01:01:38.574Z,9.50
2018-04-11T01:04:06.237Z,9.33
2018-04-11T01:06:33.873Z,8.80
2018-04-11T01:09:02.296Z,10.23
2018-04-11T01:11:29.973Z,8.70
2018-04-11T01:13:57.630Z,9.23
2018-04-11T01:16:25.291Z,10.57
2018-04-11T01:18:52.986Z,10.03
2018-04-11T01:21:20.608Z,9.77
2018-04-11T01:23:49.040Z,9.15
2018-04-11T01:26:16.673Z,9.80
2018-04-11T01:28:45.080Z,10.82
2018-04-11T01:31:12.672Z,10.73
2018-04-11T01:33:41.061Z,9.73
2018-04-11T01:36:08.721Z,11.70
2018-04-11T01:38:36.371Z,10.48
2018-04-11T01:41:04.041Z,10.13
2018-04-11T01:43:31.666Z,9.88
2018-04-11T01:45:59.294Z,10.48
2018-04-11T01:48:26.982Z,10.10
2018-04-11T01:50:54.639Z,11.02
2018-04-11T01:53:22.413Z,11.07
2018-04-11T01:55:50.053Z,11.85
2018-04-11T01:58:17.671Z,11.27
2018-04-11T02:00:45.328Z,12.13
2018-04-11T02:03:12.994Z,11.07
2018-04-11T02:05:40.700Z,11.77
2018-04-11T02:08:08.313Z,12.43
2018-04-11T02:10:36.765Z,11.05
2018-04-11T02:13:04.423Z,11.20
2018-04-11T02:15:32.058Z,13.32
2018-04-11T02:17:59.736Z,11.93
2018-04-11T02:20:27.367Z,12.30
2018-04-11T02:22:54.989Z,11.23
2018-04-11T02:25:22.656Z,13.95
2018-04-11T02:27:50.296Z,10.75
2018-04-11T02:30:17.917Z,11.12
2018-04-11T02:32:45.572Z,11.63
2018-04-11T02:35:13.228Z,12.50
2018-04-11T02:37:41.169Z,11.80
2018-04-11T02:40:08.829Z,11.75
2018-04-11T02:42:36.494Z,12.43
2018-04-11T02:45:04.928Z,10.57
2018-04-11T02:47:32.533Z,11.10
2018-04-11T02:50:00.942Z,11.27
2018-04-11T02:52:29.534Z,11.52
2018-04-11T02:54:57.205Z,12.02
2018-04-11T02:57:25.590Z,11.30
2018-04-11T02:59:53.245Z,11.82
2018-04-11T03:02:20.913Z,12.83
2018-04-11T03:04:48.608Z,12.65
2018-04-11T03:07:16.269Z,10.70
2018-04-11T03:09:44.221Z,10.20
2018-04-11T03:12:11.915Z,11.32
2018-04-11T03:14:39.593Z,10.82
2018-04-11T03:17:07.216Z,11.20
2018-04-11T03:19:34.882Z,10.57
2018-04-11T03:22:02.513Z,10.67
2018-04-11T03:24:30.166Z,10.45
2018-04-11T03:26:57.788Z,12.95
2018-04-11T03:29:25.394Z,12.27
2018-04-11T03:31:53.044Z,11.02
2018-04-11T03:34:21.594Z,10.32
2018-04-11T03:36:49.240Z,11.10
2018-04-11T03:39:17.654Z,10.23
2018-04-11T03:41:45.265Z,9.98
2018-04-11T03:44:12.919Z,10.77
2018-04-11T03:46:40.563Z,12.48
2018-04-11T03:49:08.192Z,11.60
2018-04-11T03:51:35.810Z,11.73
2018-04-11T03:54:03.437Z,10.27
2018-04-11T03:56:31.951Z,12.65
2018-04-11T03:58:59.565Z,11.77
2018-04-11T04:01:27.230Z,11.23
2018-04-11T04:03:54.889Z,10.65
2018-04-11T04:06:22.521Z,11.32
2018-04-11T04:08:50.147Z,9.80
2018-04-11T04:11:18.657Z,10.27
2018-04-11T04:13:58.131Z,11.30
2018-04-11T04:16:37.709Z,10.45
2018-04-11T04:19:17.348Z,10.68
2018-04-11T04:21:44.946Z,12.63
2018-04-11T04:24:13.260Z,10.20
2018-04-11T04:26:40.894Z,11.00
2018-04-11T04:29:08.577Z,10.63
2018-04-11T04:31:36.232Z,11.73
2018-04-11T04:34:03.872Z,11.48
2018-04-11T04:36:32.310Z,9.75
2018-04-11T04:38:59.963Z,11.12
2018-04-11T04:41:27.591Z,12.75
2018-04-11T04:43:55.297Z,11.75
2018-04-11T04:46:23.466Z,11.05
2018-04-11T04:48:51.169Z,11.65
2018-04-11T04:51:18.784Z,9.40
2018-04-11T04:53:46.432Z,11.80
2018-04-11T04:56:14.818Z,11.93
2018-04-11T04:58:43.532Z,10.30
2018-04-11T05:01:11.145Z,11.35
2018-04-11T05:03:38.767Z,10.87
2018-04-11T05:06:06.395Z,10.70
2018-04-11T05:08:34.937Z,9.20
2018-04-11T05:11:02.575Z,10.23
2018-04-11T05:13:30.191Z,11.07
2018-04-11T05:15:57.881Z,10.43
2018-04-11T05:18:26.361Z,10.70
2018-04-11T05:20:55.011Z,10.48
2018-04-11T05:23:22.633Z,9.63
2018-04-11T05:25:50.281Z,11.25
2018-04-11T05:28:18.696Z,11.55
2018-04-11T05:30:46.348Z,10.90
2018-04-11T05:33:14.002Z,10.32
2018-04-11T05:35:42.299Z,10.25
2018-04-11T05:38:09.947Z,10.27
2018-04-11T05:40:38.390Z,10.32
2018-04-11T05:43:06.548Z,9.53
2018-04-11T05:45:34.184Z,11.00
2018-04-11T05:48:01.830Z,13.32
2018-04-11T05:50:29.449Z,12.70
2018-04-11T05:52:57.098Z,11.25
2018-04-11T05:55:25.484Z,10.63
2018-04-11T05:57:53.904Z,10.77
2018-04-11T06:00:21.554Z,10.30
2018-04-11T06:02:49.379Z,10.30
2018-04-11T06:05:18.027Z,11.63
2018-04-11T06:07:45.654Z,10.93
2018-04-11T06:10:14.385Z,10.40
2018-04-11T06:12:42.038Z,12.23
2018-04-11T06:15:10.503Z,10.75
2018-04-11T06:17:38.125Z,10.38
2018-04-11T06:20:05.940Z,12.27
2018-04-11T06:22:34.367Z,11.07
2018-04-11T06:25:01.990Z,9.88
2018-04-11T06:27:31.705Z,12.20
2018-04-11T06:29:59.331Z,11.63
2018-04-11T06:32:26.955Z,9.97
2018-04-11T06:34:54.621Z,10.60
2018-04-11T06:37:22.592Z,11.05
2018-04-11T06:39:50.221Z,11.18
2018-04-11T06:42:18.835Z,10.93
2018-04-11T06:44:47.213Z,10.98
2018-04-11T06:47:16.358Z,10.27
2018-04-11T06:49:44.017Z,12.00
2018-04-11T06:52:11.657Z,10.83
2018-04-11T06:54:39.303Z,11.43
2018-04-11T06:57:08.283Z,11.57
2018-04-11T06:59:35.917Z,10.38
2018-04-11T07:02:03.590Z,10.03
2018-04-11T07:04:31.227Z,10.00
2018-04-11T07:06:59.786Z,10.00
2018-04-11T07:09:28.206Z,9.93
2018-04-11T07:11:55.876Z,9.93
2018-04-11T07:14:23.761Z,9.53
2018-04-11T07:16:51.404Z,10.85
2018-04-11T07:19:19.083Z,9.05
2018-04-11T07:21:46.704Z,10.07
2018-04-11T07:24:15.115Z,9.85
2018-04-11T07:26:43.451Z,10.82
2018-04-11T07:29:11.119Z,10.05
2018-04-11T07:31:39.359Z,10.23
2018-04-11T07:34:07.028Z,9.93
2018-04-11T07:36:34.681Z,10.93
2018-04-11T07:39:02.393Z,9.40
2018-04-11T07:41:33.431Z,10.50
2018-04-11T07:44:01.098Z,10.32
2018-04-11T07:46:28.705Z,8.93
2018-04-11T07:48:57.333Z,10.55
2018-04-11T07:51:24.979Z,8.52
2018-04-11T07:53:52.621Z,9.63
2018-04-11T07:56:20.312Z,8.35
2018-04-11T07:58:47.988Z,9.32
2018-04-11T08:01:15.585Z,9.60
2018-04-11T08:03:43.184Z,8.65
2018-04-11T08:06:11.649Z,8.88
2018-04-11T08:08:39.273Z,7.30
2018-04-11T08:11:06.951Z,8.23
2018-04-11T08:13:35.318Z,7.12
2018-04-11T08:16:03.008Z,9.27
2018-04-11T08:18:30.690Z,7.40
2018-04-11T08:20:58.373Z,8.20
2018-04-11T08:23:29.968Z,6.93
2018-04-11T08:25:57.642Z,8.38
2018-04-11T08:28:25.328Z,6.12
2018-04-11T08:30:52.966Z,6.57
2018-04-11T08:33:21.368Z,5.93
2018-04-11T08:35:49.010Z,7.05
2018-04-11T08:38:17.437Z,7.00
2018-04-11T08:40:45.112Z,6.33
2018-04-11T08:43:12.734Z,6.00
2018-04-11T08:45:41.166Z,6.37
2018-04-11T08:48:08.853Z,7.25
2018-04-11T08:50:36.511Z,6.78
2018-04-11T08:53:04.174Z,6.03
2018-04-11T08:55:31.851Z,6.57
2018-04-11T08:57:59.474Z,6.97
2018-04-11T09:00:27.168Z,6.12
2018-04-11T09:02:55.887Z,7.68
2018-04-11T09:05:23.810Z,6.50
2018-04-11T09:07:51.929Z,7.03
2018-04-11T09:10:19.577Z,6.78
2018-04-11T09:12:47.243Z,6.53
2018-04-11T09:15:14.856Z,5.85
2018-04-11T09:17:43.250Z,6.65
2018-04-11T09:20:10.910Z,5.97
2018-04-11T09:22:38.544Z,5.67
2018-04-11T09:25:06.220Z,5.20
2018-04-11T09:27:33.903Z,5.35
2018-04-11T09:30:02.358Z,6.23
2018-04-11T09:32:30.016Z,6.30
2018-04-11T09:34:59.295Z,5.65
2018-04-11T09:37:26.921Z,6.78
2018-04-11T09:39:55.379Z,6.15
2018-04-11T09:42:23.254Z,4.78
2018-04-11T09:44:51.922Z,5.82
2018-04-11T09:47:19.573Z,5.72
2018-04-11T09:49:47.236Z,4.82
2018-04-11T09:52:14.973Z,5.87
2018-04-11T09:54:43.376Z,6.55
2018-04-11T09:57:11.164Z,6.82
2018-04-11T09:59:40.675Z,4.72
2018-04-11T10:02:08.663Z,5.62
2018-04-11T10:04:36.308Z,5.32
2018-04-11T10:07:03.920Z,4.80
2018-04-11T10:09:31.599Z,7.17
2018-04-11T10:11:59.980Z,5.87
2018-04-11T10:14:28.401Z,5.32
2018-04-11T10:16:56.066Z,6.22
2018-04-11T10:19:23.756Z,6.55
2018-04-11T10:21:51.563Z,5.82
2018-04-11T10:24:19.240Z,6.57
2018-04-11T10:26:46.904Z,6.22
2018-04-11T10:29:14.516Z,5.93
2018-04-11T10:31:42.178Z,5.75
2018-04-11T10:34:09.974Z,5.47
2018-04-11T10:36:37.617Z,5.80
2018-04-11T10:39:05.264Z,5.93
2018-04-11T10:41:34.655Z,6.05
2018-04-11T10:44:03.070Z,6.50
2018-04-11T10:46:30.718Z,5.70
2018-04-11T10:48:59.121Z,5.10
2018-04-11T10:51:26.760Z,5.03
2018-04-11T10:53:55.242Z,5.97
2018-04-11T10:56:23.650Z,5.63
2018-04-11T10:58:51.292Z,5.50
2018-04-11T11:01:19.666Z,5.87
2018-04-11T11:03:47.357Z,5.80
2018-04-11T11:06:15.723Z,5.30
2018-04-11T11:08:43.387Z,5.80
2018-04-11T11:11:12.224Z,5.70
2018-04-11T11:13:39.886Z,6.57
2018-04-11T11:16:07.506Z,5.90
2018-04-11T11:18:35.141Z,5.90
2018-04-11T11:21:02.776Z,5.82
2018-04-11T11:23:31.201Z,6.22
2018-04-11T11:25:59.768Z,7.05
2018-04-11T11:28:27.422Z,5.43
2018-04-11T11:30:55.137Z,5.60
2018-04-11T11:33:22.807Z,5.37
2018-04-11T11:35:50.479Z,6.10
2018-04-11T11:38:18.385Z,6.00
2018-04-11T11:40:46.768Z,6.53
2018-04-11T11:43:14.393Z,7.28
2018-04-11T11:45:42.927Z,5.80
2018-04-11T11:48:12.004Z,6.30
2018-04-11T11:50:39.617Z,5.50
2018-04-11T11:53:07.287Z,6.18
2018-04-11T11:55:34.922Z,5.93
2018-04-11T11:58:02.608Z,6.37
2018-04-11T12:00:30.224Z,6.00
2018-04-11T12:02:58.680Z,5.93
2018-04-11T12:05:26.475Z,6.90
2018-04-11T12:07:55.056Z,5.90
2018-04-11T12:10:22.734Z,6.68
2018-04-11T12:12:50.372Z,5.65
2018-04-11T12:15:18.037Z,7.53
2018-04-11T12:17:45.684Z,6.28
2018-04-11T12:20:13.490Z,6.55
2018-04-11T12:22:41.103Z,6.20
2018-04-11T12:25:08.802Z,6.28
2018-04-11T12:27:37.209Z,6.63
2018-04-11T12:30:05.095Z,5.87
2018-04-11T12:32:33.414Z,6.45
2018-04-11T12:35:01.066Z,6.40
2018-04-11T12:37:29.481Z,7.45
2018-04-11T12:39:57.964Z,6.73
2018-04-11T12:42:25.647Z,6.30
2018-04-11T12:44:54.089Z,6.12
2018-04-11T12:47:21.783Z,6.55
2018-04-11T12:49:49.440Z,5.75
2018-04-11T12:52:17.101Z,6.70
2018-04-11T12:54:46.202Z,6.05
2018-04-11T12:57:14.605Z,6.87
2018-04-11T12:59:42.247Z,6.00
2018-04-11T13:02:09.915Z,6.13
2018-04-11T13:04:38.313Z,6.65
2018-04-11T13:07:06.107Z,6.20
2018-04-11T13:09:34.208Z,7.05
2018-04-11T13:12:01.826Z,5.93
2018-04-11T13:14:29.508Z,5.50
2018-04-11T13:16:57.117Z,6.00
2018-04-11T13:19:24.849Z,6.10
2018-04-11T13:21:52.687Z,5.60
2018-04-11T13:24:20.941Z,6.47
2018-04-11T13:26:48.600Z,6.47
2018-04-11T13:29:16.291Z,6.05
2018-04-11T13:31:44.733Z,6.12
2018-04-11T13:34:12.350Z,6.82
2018-04-11T13:36:40.783Z,6.30
2018-04-11T13:39:08.618Z,6.15
2018-04-11T13:41:36.274Z,6.65
2018-04-11T13:44:03.910Z,6.37
2018-04-11T13:46:31.609Z,6.85
2018-04-11T13:48:59.268Z,6.27
2018-04-11T13:51:26.917Z,6.33
2018-04-11T13:53:55.394Z,6.82
2018-04-11T13:56:23.178Z,7.07
2018-04-11T13:58:50.781Z,6.50
2018-04-11T14:01:18.436Z,6.28
2018-04-11T14:03:46.123Z,6.62
2018-04-11T14:06:13.771Z,6.85
2018-04-11T14:08:41.447Z,6.80
2018-04-11T14:11:09.111Z,7.03
2018-04-11T14:13:36.771Z,6.67
2018-04-11T14:16:04.465Z,7.82
2018-04-11T14:18:32.089Z,6.75
2018-04-11T14:21:00.745Z,6.55
2018-04-11T14:23:29.797Z,7.78
2018-04-11T14:25:57.472Z,5.87
2018-04-11T14:28:25.284Z,6.90
2018-04-11T14:30:52.904Z,5.97
2018-04-11T14:33:20.557Z,6.78
2018-04-11T14:35:48.216Z,6.37
2018-04-11T14:38:15.877Z,6.80
2018-04-11T14:40:43.536Z,7.30
2018-04-11T14:43:11.161Z,6.32
2018-04-11T14:45:38.829Z,8.52
2018-04-11T14:48:07.623Z,7.85
2018-04-11T14:50:36.064Z,7.80
2018-04-11T14:53:03.699Z,6.70
2018-04-11T14:55:32.545Z,7.10
2018-04-11T14:58:00.186Z,7.70
2018-04-11T15:00:28.038Z,7.97
2018-04-11T15:02:55.721Z,8.05
2018-04-11T15:05:23.443Z,7.53
2018-04-11T15:07:51.945Z,6.95
2018-04-11T15:10:20.384Z,8.05
2018-04-11T15:12:48.059Z,7.68
2018-04-11T15:15:16.492Z,8.07
2018-04-11T15:17:45.016Z,7.68
2018-04-11T15:20:12.648Z,10.07
2018-04-11T15:22:40.321Z,7.78
2018-04-11T15:25:07.966Z,8.05
2018-04-11T15:27:36.722Z,8.07
2018-04-11T15:30:04.902Z,8.85
2018-04-11T15:32:32.639Z,7.30
2018-04-11T15:35:00.267Z,7.60
2018-04-11T15:37:28.098Z,7.97
2018-04-11T15:39:56.520Z,10.15
2018-04-11T15:42:25.077Z,8.27
2018-04-11T15:44:52.746Z,8.40
2018-04-11T15:47:20.398Z,7.65
2018-04-11T15:49:48.033Z,9.10
2018-04-11T15:52:16.556Z,7.83
2018-04-11T15:54:44.186Z,9.37
2018-04-11T15:57:13.620Z,9.57
2018-04-11T15:59:41.277Z,9.32
2018-04-11T16:02:09.045Z,8.80
2018-04-11T16:04:36.668Z,9.82
2018-04-11T16:07:05.125Z,8.90
2018-04-11T16:09:32.762Z,9.90
2018-04-11T16:12:01.130Z,9.13
2018-04-11T16:14:29.565Z,9.83
2018-04-11T16:16:57.227Z,9.90
2018-04-11T16:19:24.913Z,10.38
2018-04-11T16:21:53.017Z,11.65
2018-04-11T16:24:21.437Z,8.30
2018-04-11T16:26:49.102Z,9.65
2018-04-11T16:29:16.744Z,9.13
2018-04-11T16:31:44.453Z,9.15
2018-04-11T16:34:12.198Z,9.47
2018-04-11T16:36:39.822Z,8.25
2018-04-11T16:39:07.501Z,9.43
2018-04-11T16:41:35.919Z,8.63
2018-04-11T16:44:03.579Z,7.75
2018-04-11T16:46:31.210Z,8.45
2018-04-11T16:48:59.951Z,8.60
2018-04-11T16:51:27.585Z,8.40
2018-04-11T16:53:56.059Z,7.40
2018-04-11T16:56:24.530Z,8.57
2018-04-11T16:58:52.284Z,9.40
2018-04-11T17:01:19.925Z,8.37
2018-04-11T17:03:48.092Z,8.13
2018-04-11T17:06:15.769Z,8.70
2018-04-11T17:08:43.421Z,8.10
2018-04-11T17:11:11.128Z,9.43
2018-04-11T17:13:38.805Z,9.70
2018-04-11T17:16:06.490Z,8.90
2018-04-11T17:18:34.120Z,10.07
2018-04-11T17:21:13.527Z,9.67
2018-04-11T17:23:53.074Z,10.70
2018-04-11T17:26:32.627Z,9.27
2018-04-11T17:29:11.945Z,9.55
2018-04-11T17:31:39.836Z,8.97
2018-04-11T17:34:07.549Z,10.80
2018-04-11T17:36:35.396Z,10.35
2018-04-11T17:39:03.501Z,10.30
2018-04-11T17:41:31.946Z,10.20
2018-04-11T17:43:59.600Z,11.70
2018-04-11T17:46:27.352Z,9.43
2018-04-11T17:48:54.990Z,9.83
2018-04-11T17:51:23.437Z,9.93
2018-04-11T17:53:51.153Z,11.32
2018-04-11T17:56:18.869Z,10.23
2018-04-11T17:58:46.529Z,10.27
2018-04-11T18:01:14.197Z,11.00
2018-04-11T18:03:42.573Z,10.73
2018-04-11T18:06:10.221Z,11.27
2018-04-11T18:08:37.888Z,10.85
2018-04-11T18:11:05.574Z,9.98
2018-04-11T18:13:33.219Z,10.10
2018-04-11T18:16:00.913Z,11.50
2018-04-11T18:18:28.544Z,11.70
2018-04-11T18:20:56.263Z,10.85
2018-04-11T18:23:24.501Z,11.10
2018-04-11T18:25:52.132Z,13.13
2018-04-11T18:28:19.795Z,12.13
2018-04-11T18:30:47.477Z,12.32
2018-04-11T18:33:16.065Z,10.85
2018-04-11T18:35:44.474Z,11.00
2018-04-11T18:38:12.138Z,9.70
2018-04-11T18:40:40.601Z,10.43
2018-04-11T18:43:08.979Z,12.98
2018-04-11T18:45:36.647Z,11.02
2018-04-11T18:48:05.188Z,10.15
2018-04-11T18:50:32.830Z,11.98
2018-04-11T18:53:00.562Z,12.07
2018-04-11T18:55:28.224Z,12.70
2018-04-11T18:57:56.011Z,12.13
2018-04-11T19:00:23.682Z,12.77
2018-04-11T19:02:58.066Z,11.90
2018-04-11T19:05:27.004Z,12.55
2018-04-11T19:07:54.740Z,12.52
2018-04-11T19:10:22.389Z,12.05
2018-04-11T19:12:50.223Z,11.98
2018-04-11T19:15:17.922Z,10.98
2018-04-11T19:17:45.824Z,11.40
2018-04-11T19:20:13.461Z,11.25
2018-04-11T19:22:41.254Z,13.50
2018-04-11T19:25:08.905Z,11.93
2018-04-11T19:27:36.911Z,10.93
2018-04-11T19:30:04.584Z,11.50
2018-04-11T19:32:32.249Z,11.90
2018-04-11T19:35:00.081Z,13.27
2018-04-11T19:37:27.717Z,10.82
2018-04-11T19:39:56.462Z,13.73
2018-04-11T19:42:25.080Z,13.50
2018-04-11T19:44:52.918Z,12.13
2018-04-11T19:47:20.624Z,13.80
2018-04-11T19:49:48.302Z,12.55
2018-04-11T19:52:16.789Z,11.95
2018-04-11T19:54:44.418Z,13.20
2018-04-11T19:57:12.099Z,11.23
2018-04-11T19:59:39.829Z,12.50
2018-04-11T20:02:07.961Z,13.13
2018-04-11T20:04:36.691Z,12.60
2018-04-11T20:07:04.352Z,13.60
2018-04-11T20:09:32.121Z,11.17
2018-04-11T20:12:00.455Z,12.98
2018-04-11T20:14:29.715Z,14.47
2018-04-11T20:16:57.345Z,10.73
2018-04-11T20:19:25.005Z,13.27
2018-04-11T20:21:53.409Z,12.70
2018-04-11T20:24:21.071Z,13.30
2018-04-11T20:26:50.362Z,13.15
2018-04-11T20:29:18.908Z,11.63
2018-04-11T20:31:46.596Z,12.40
2018-04-11T20:34:14.268Z,11.68
2018-04-11T20:36:42.687Z,12.75
2018-04-11T20:39:11.719Z,12.57
2018-04-11T20:41:39.425Z,11.98
2018-04-11T20:44:08.183Z,11.23
2018-04-11T20:46:36.258Z,11.20
2018-04-11T20:49:03.929Z,11.65
2018-04-11T20:51:31.592Z,12.48
2018-04-11T20:53:59.516Z,12.33
2018-04-11T20:56:28.054Z,11.38
2018-04-11T20:58:55.736Z,11.73
2018-04-11T21:01:23.390Z,10.93
2018-04-11T21:03:51.049Z,13.70
2018-04-11T21:06:18.754Z,11.77
2018-04-11T21:08:46.451Z,12.23
2018-04-11T21:11:14.130Z,12.70
2018-04-11T21:13:41.771Z,11.85
2018-04-11T21:16:10.249Z,11.82
2018-04-11T21:18:38.764Z,11.15
2018-04-11T21:21:07.591Z,12.50
2018-04-11T21:23:35.211Z,12.02
2018-04-11T21:26:03.679Z,11.47
2018-04-11T21:28:31.674Z,10.70
2018-04-11T21:31:00.937Z,11.38
2018-04-11T21:33:29.589Z,11.32
2018-04-11T21:35:58.091Z,11.30
2018-04-11T21:38:25.731Z,10.75
2018-04-11T21:40:53.952Z,11.25
2018-04-11T21:43:21.606Z,10.77
2018-04-11T21:45:50.516Z,11.60
2018-04-11T21:48:18.191Z,11.18
2018-04-11T21:50:46.581Z,11.12
2018-04-11T21:53:15.632Z,10.73
2018-04-11T21:55:44.705Z,10.05
2018-04-11T21:58:13.293Z,10.65
2018-04-11T22:00:41.948Z,10.55
2018-04-11T22:03:10.356Z,10.57
2018-04-11T22:05:38.011Z,11.35
2018-04-11T22:08:06.514Z,10.88
2018-04-11T22:10:34.929Z,10.35
2018-04-11T22:13:02.619Z,13.48
2018-04-11T22:15:30.282Z,11.07
2018-04-11T22:17:57.972Z,11.12
2018-04-11T22:20:26.544Z,10.90
2018-04-11T22:22:54.194Z,11.23
2018-04-11T22:25:21.871Z,11.20
2018-04-11T22:27:49.536Z,10.53
2018-04-11T22:30:17.195Z,11.43
2018-04-11T22:32:46.044Z,11.27
2018-04-11T22:35:13.718Z,11.23
2018-04-11T22:37:42.152Z,11.12
2018-04-11T22:40:09.835Z,9.88
2018-04-11T22:42:38.362Z,11.07
2018-04-11T22:45:06.014Z,10.93
2018-04-11T22:47:33.667Z,10.53
2018-04-11T22:50:01.634Z,10.27
2018-04-11T22:52:29.571Z,11.73
2018-04-11T22:54:57.208Z,10.35
2018-04-11T22:57:25.777Z,10.77
2018-04-11T22:59:54.295Z,9.65
2018-04-11T23:02:23.033Z,10.73
2018-04-11T23:04:50.719Z,10.88
2018-04-11T23:07:18.417Z,10.15
2018-04-11T23:09:46.850Z,11.10
2018-04-11T23:12:14.555Z,11.30
2018-04-11T23:14:42.184Z,10.30
2018-04-11T23:17:10.664Z,10.50
2018-04-11T23:19:38.426Z,9.55
2018-04-11T23:22:06.102Z,9.35
2018-04-11T23:24:33.713Z,10.68
2018-04-11T23:27:01.381Z,11.15
2018-04-11T23:29:28.981Z,9.93
2018-04-11T23:31:56.693Z,10.93
2018-04-11T23:34:24.357Z,10.27
2018-04-11T23:36:52.304Z,10.30
2018-04-11T23:39:19.919Z,11.00
2018-04-11T23:41:48.399Z,10.18
2018-04-11T23:44:17.020Z,10.93
2018-04-11T23:46:45.404Z,11.57
2018-04-11T23:49:13.041Z,12.02
2018-04-11T23:51:40.692Z,10.88
2018-04-11T23:54:08.357Z,10.57
2018-04-11T23:56:37.208Z,12.27
2018-04-11T23:59:05.751Z,11.80
